Terminal Aerodrome Forecast
Issued by NWS Pendleton, OR

Home | Current Version | Previous Version | Text Only | Print | Product List | Glossary On
Versions: 1 2 3 4 5 6 7 8 9 10 11 12 13
000
FTUS46 KPDT 171100
TAFPDT
TAF
KPDT 171120Z 1712/1812 17006KT P6SM VCSH SCT050 OVC080
     FM171800 24011KT P6SM -RA SCT025 BKN040 OVC070
     FM180200 25014G22KT P6SM -SHRA BKN050
     FM180600 25015G25KT P6SM BKN050 BKN100=

USA.gov is the U.S. government's official web portal to all federal, state and local government web resources and services.